Time;durP1;ratioP1;P1;durP2;ratioP2;P2;SDS_P1;SDS_P2;PMS_P1;PMS_P2;Temp;Humidity;BMP_temperature;BMP_pressure;BME280_temperature;BME280_humidity;BME280_pressure;Samples;Min_cycle;Max_cycle;Signal;HPM_P1;HPM_P2
2022/07/11 00:01:37;;;;;;;0.10;0.10;;;;;;;21.90;52.55;101952.19;5139775;27;20575;-38
2022/07/11 00:04:02;;;;;;;0.10;0.10;;;;;;;21.87;52.61;101951.91;5124346;27;20503;-40
2022/07/11 00:06:28;;;;;;;0.10;0.10;;;;;;;21.88;52.68;101959.94;5141642;27;20131;-39
2022/07/11 00:08:54;;;;;;;0.10;0.10;;;;;;;21.88;52.64;101953.56;5137527;27;20043;-37
2022/07/11 00:11:20;;;;;;;0.10;0.10;;;;;;;21.88;52.27;101951.63;5137621;27;20494;-37
2022/07/11 00:13:45;;;;;;;0.10;0.10;;;;;;;21.88;52.58;101950.81;5139194;27;20039;-39
2022/07/11 00:16:11;;;;;;;0.10;0.10;;;;;;;21.87;52.57;101954.69;5138323;27;20054;-37
2022/07/11 00:18:38;;;;;;;0.10;0.10;;;;;;;21.87;52.93;101955.50;5139361;27;20126;-39
2022/07/11 00:21:04;;;;;;;0.10;0.10;;;;;;;21.89;52.63;101953.31;5146117;27;20477;-37
2022/07/11 00:23:30;;;;;;;0.10;0.10;;;;;;;21.89;52.61;101955.22;5140714;27;20051;-38
2022/07/11 00:25:56;;;;;;;0.10;0.10;;;;;;;21.87;52.58;101944.44;5142425;27;20038;-39
2022/07/11 00:28:21;;;;;;;0.10;0.10;;;;;;;21.87;52.66;101951.91;5146831;27;20054;-40
2022/07/11 00:30:47;;;;;;;0.10;0.10;;;;;;;21.88;52.61;101946.09;5144520;27;20045;-40
2022/07/11 00:33:13;;;;;;;0.10;0.10;;;;;;;21.87;52.66;101946.38;5138241;27;20047;-40
2022/07/11 00:35:39;;;;;;;0.10;0.10;;;;;;;21.86;52.62;101945.53;5142446;27;20045;-39
2022/07/11 00:38:04;;;;;;;0.10;0.10;;;;;;;21.88;52.67;101942.47;5140976;27;20045;-39
2022/07/11 00:40:30;;;;;;;0.10;0.10;;;;;;;21.88;52.68;101935.00;5142226;27;20129;-40
2022/07/11 00:42:56;;;;;;;0.10;0.10;;;;;;;21.87;52.64;101940.81;5124255;27;20481;-37
2022/07/11 00:45:21;;;;;;;0.10;0.10;;;;;;;21.87;52.64;101946.38;5141796;27;20043;-39
2022/07/11 00:47:47;;;;;;;0.10;0.10;;;;;;;21.86;52.70;101940.00;5138050;27;20069;-40
2022/07/11 00:50:14;;;;;;;0.10;0.10;;;;;;;21.87;52.73;101943.59;5143213;27;20042;-40
2022/07/11 00:52:40;;;;;;;0.10;0.10;;;;;;;21.86;52.57;101940.00;5138062;27;20122;-39
2022/07/11 00:55:07;;;;;;;0.10;0.10;;;;;;;21.84;52.72;101936.66;5140719;27;20489;-37
2022/07/11 00:57:33;;;;;;;0.10;0.10;;;;;;;21.87;52.70;101947.19;5138430;27;20495;-40
2022/07/11 00:59:59;;;;;;;0.10;0.10;;;;;;;21.87;52.55;101936.09;5123821;27;20050;-39
2022/07/11 01:02:25;;;;;;;0.10;0.10;;;;;;;21.90;52.56;101945.81;5141440;27;20091;-37
2022/07/11 01:04:51;;;;;;;0.10;0.10;;;;;;;21.89;52.39;101939.44;5137063;27;20480;-37
2022/07/11 01:07:16;;;;;;;0.10;0.10;;;;;;;21.88;52.78;101931.38;5140414;27;20404;-37
2022/07/11 01:09:42;;;;;;;0.10;0.10;;;;;;;21.86;52.74;101934.44;5141628;27;20051;-38
2022/07/11 01:12:09;;;;;;;0.10;0.10;;;;;;;21.88;52.69;101935.00;5141892;27;20043;-37
2022/07/11 01:14:34;;;;;;;0.10;0.10;;;;;;;21.88;52.66;101943.31;5141956;27;20135;-39
2022/07/11 01:17:00;;;;;;;0.10;0.10;;;;;;;21.88;52.71;101937.75;5137781;27;20051;-38
2022/07/11 01:19:26;;;;;;;0.10;0.10;;;;;;;21.85;52.67;101931.94;5142290;27;20138;-38
2022/07/11 01:21:52;;;;;;;0.10;0.10;;;;;;;21.88;52.56;101936.94;5141026;27;20046;-37
2022/07/11 01:24:17;;;;;;;0.10;0.10;;;;;;;21.87;52.67;101935.28;5122525;27;20390;-37
2022/07/11 01:26:50;;;;;;;0.10;0.10;;;;;;;21.87;52.73;101936.09;5143714;27;20046;-39
2022/07/11 01:29:16;;;;;;;0.10;0.10;;;;;;;21.87;52.64;101935.28;5142170;27;20039;-39
2022/07/11 01:31:42;;;;;;;0.10;0.10;;;;;;;21.87;52.63;101938.06;5138008;27;20443;-39
2022/07/11 01:34:08;;;;;;;0.10;0.10;;;;;;;21.85;52.74;101934.69;5116523;27;20071;-39
2022/07/11 01:36:33;;;;;;;0.10;0.10;;;;;;;21.87;52.67;101929.72;5144179;27;20078;-37
2022/07/11 01:38:59;;;;;;;0.10;0.10;;;;;;;21.86;52.50;101926.13;5138226;27;20074;-37
2022/07/11 01:41:25;;;;;;;0.10;0.10;;;;;;;21.87;52.67;101926.97;5139492;27;20367;-36
2022/07/11 01:43:51;;;;;;;0.10;0.10;;;;;;;21.87;52.75;101924.19;5141998;27;20061;-39
2022/07/11 01:46:17;;;;;;;0.10;0.10;;;;;;;21.85;52.76;101929.16;5143734;27;20572;-37
2022/07/11 01:48:43;;;;;;;0.10;0.10;;;;;;;21.87;52.66;101926.97;5142293;27;20066;-38
2022/07/11 01:51:09;;;;;;;0.10;0.10;;;;;;;21.86;52.66;101934.44;5143481;27;20043;-37
2022/07/11 01:53:35;;;;;;;0.10;0.10;;;;;;;21.85;52.74;101924.47;5143815;27;20388;-39
2022/07/11 01:56:01;;;;;;;0.10;0.10;;;;;;;21.87;52.66;101919.47;5142628;27;20047;-37
2022/07/11 01:58:45;;;;;;;0.10;0.10;;;;;;;21.84;52.79;101925.56;5140713;27;20054;-37
2022/07/11 02:01:11;;;;;;;0.10;0.10;;;;;;;21.84;52.76;101928.31;5145574;27;20039;-38
2022/07/11 02:03:37;;;;;;;0.10;0.10;;;;;;;21.85;52.76;101931.94;5146502;27;20042;-37
2022/07/11 02:06:03;;;;;;;0.10;0.10;;;;;;;21.86;52.68;101930.84;5143487;27;20088;-38
2022/07/11 02:08:29;;;;;;;0.10;0.10;;;;;;;21.86;52.67;101937.22;5143719;27;20055;-37
2022/07/11 02:10:54;;;;;;;0.10;0.10;;;;;;;21.86;52.65;101930.84;5142550;27;20035;-39
2022/07/11 02:13:21;;;;;;;0.10;0.10;;;;;;;21.87;52.75;101932.50;5139527;27;20054;-39
2022/07/11 02:15:49;;;;;;;0.10;0.10;;;;;;;21.87;52.70;101919.47;5146763;27;20092;-38
2022/07/11 02:18:14;;;;;;;0.10;0.10;;;;;;;21.86;52.74;101917.81;5126627;27;20155;-37
2022/07/11 02:20:42;;;;;;;0.10;0.10;;;;;;;21.86;52.65;101923.34;5142191;27;20051;-38
2022/07/11 02:23:08;;;;;;;0.10;0.10;;;;;;;21.84;52.84;101921.94;5130001;27;20449;-38
2022/07/11 02:25:38;;;;;;;0.10;0.10;;;;;;;21.86;52.64;101922.53;5129579;27;20078;-37
2022/07/11 02:28:05;;;;;;;0.20;0.20;;;;;;;21.83;52.77;101926.66;5146644;27;20051;-37
2022/07/11 02:30:31;;;;;;;0.10;0.10;;;;;;;21.85;52.68;101927.25;5127874;27;20560;-39
2022/07/11 02:32:56;;;;;;;0.10;0.10;;;;;;;21.85;52.70;101920.84;5143609;27;20220;-39
2022/07/11 02:35:22;;;;;;;0.10;0.10;;;;;;;21.84;52.65;101925.56;5140197;27;20431;-39
2022/07/11 02:37:48;;;;;;;0.10;0.10;;;;;;;21.85;52.59;101920.84;5119384;27;20055;-39
2022/07/11 02:40:14;;;;;;;0.10;0.10;;;;;;;21.87;52.41;101918.63;5144750;27;20129;-37
2022/07/11 02:42:39;;;;;;;0.10;0.10;;;;;;;21.86;52.59;101923.34;5121941;27;20043;-37
2022/07/11 02:45:07;;;;;;;0.10;0.10;;;;;;;21.87;52.58;101924.19;5142416;27;20054;-37
2022/07/11 02:47:35;;;;;;;0.10;0.10;;;;;;;21.85;52.71;101927.25;5124085;27;20130;-37
2022/07/11 02:50:00;;;;;;;0.10;0.10;;;;;;;21.87;52.66;101919.47;5138739;27;20078;-37
2022/07/11 02:52:26;;;;;;;0.10;0.10;;;;;;;21.87;52.65;101924.19;5146225;27;20541;-38
2022/07/11 02:54:51;;;;;;;0.10;0.10;;;;;;;21.83;52.77;101926.66;5141725;27;20470;-37
2022/07/11 02:57:17;;;;;;;0.10;0.10;;;;;;;21.86;52.82;101920.59;5142293;27;20438;-38
2022/07/11 02:59:43;;;;;;;0.10;0.10;;;;;;;21.86;52.63;101920.59;5144567;27;20054;-38
2022/07/11 03:02:08;;;;;;;0.10;0.10;;;;;;;21.86;52.65;101923.34;5144194;27;20039;-37
2022/07/11 03:04:34;;;;;;;0.10;0.10;;;;;;;21.86;52.64;101922.53;5146660;27;20046;-37
2022/07/11 03:07:00;;;;;;;0.10;0.10;;;;;;;21.86;52.68;101926.13;5141190;27;20119;-37
2022/07/11 03:09:26;;;;;;;0.10;0.10;;;;;;;21.86;52.75;101922.53;5143193;27;20057;-37
2022/07/11 03:11:52;;;;;;;0.10;0.10;;;;;;;21.85;52.72;101929.16;5138773;27;20046;-37
2022/07/11 03:14:18;;;;;;;0.10;0.10;;;;;;;21.85;52.65;101924.47;5138410;27;20078;-37
2022/07/11 03:16:44;;;;;;;0.10;0.10;;;;;;;21.87;52.70;101933.34;5143963;27;20139;-37
2022/07/11 03:19:10;;;;;;;0.10;0.10;;;;;;;21.84;52.74;101928.31;5145822;27;20047;-37
2022/07/11 03:21:35;;;;;;;0.10;0.10;;;;;;;21.84;52.72;101933.03;5142847;27;20043;-38
2022/07/11 03:24:01;;;;;;;0.10;0.10;;;;;;;21.84;52.67;101939.41;5142966;27;20212;-39
2022/07/11 03:26:27;;;;;;;0.10;0.10;;;;;;;21.85;52.65;101937.47;5140977;27;20099;-36
2022/07/11 03:28:52;;;;;;;0.10;0.10;;;;;;;21.84;52.69;101938.59;5140616;27;20043;-37
2022/07/11 03:31:18;;;;;;;0.10;0.10;;;;;;;21.87;52.70;101938.06;5142458;27;20055;-38
2022/07/11 03:33:44;;;;;;;0.10;0.10;;;;;;;21.84;52.79;101938.59;5140770;27;20100;-36
2022/07/11 03:36:11;;;;;;;0.10;0.10;;;;;;;21.85;52.68;101940.25;5140930;27;20134;-37
2022/07/11 03:38:37;;;;;;;0.10;0.10;;;;;;;21.85;52.67;101938.34;5142889;27;20043;-37
2022/07/11 03:41:04;;;;;;;0.10;0.10;;;;;;;21.87;52.81;101936.09;5139435;27;20568;-36
2022/07/11 03:43:30;;;;;;;0.10;0.10;;;;;;;21.87;52.62;101940.81;5120963;27;20126;-37
2022/07/11 03:45:56;;;;;;;0.10;0.10;;;;;;;21.85;52.65;101940.25;5144520;27;21479;-37
2022/07/11 03:48:22;;;;;;;0.10;0.10;;;;;;;21.86;52.78;101942.75;5142702;27;20042;-37
2022/07/11 03:50:48;;;;;;;0.10;0.10;;;;;;;21.84;52.73;101942.19;5137929;27;20039;-39
2022/07/11 03:53:14;;;;;;;0.10;0.10;;;;;;;21.87;52.67;101946.38;5142626;27;20160;-38
2022/07/11 03:55:40;;;;;;;0.10;0.10;;;;;;;21.86;52.79;101939.16;5139648;27;20087;-37
2022/07/11 03:58:06;;;;;;;0.10;0.10;;;;;;;21.87;52.76;101949.16;5147290;27;20081;-38
2022/07/11 04:00:31;;;;;;;0.10;0.10;;;;;;;21.88;52.60;101943.31;5141549;27;20077;-37
2022/07/11 04:02:57;;;;;;;0.10;0.10;;;;;;;21.87;52.67;101944.44;5120619;27;20043;-37
2022/07/11 04:05:23;;;;;;;0.10;0.10;;;;;;;21.87;52.66;101944.44;5144435;27;20075;-37
2022/07/11 04:07:49;;;;;;;0.10;0.10;;;;;;;21.86;52.67;101940.00;5139223;27;20546;-37
2022/07/11 04:10:17;;;;;;;0.10;0.10;;;;;;;21.84;52.65;101944.97;5123286;27;20035;-39
2022/07/11 04:12:43;;;;;;;0.10;0.10;;;;;;;21.84;52.70;101941.38;5140724;27;20066;-38
2022/07/11 04:15:10;;;;;;;0.10;0.10;;;;;;;21.83;52.84;101934.16;5121845;27;20078;-39
2022/07/11 04:17:36;;;;;;;0.10;0.10;;;;;;;21.84;52.66;101939.41;5137562;27;20076;-39
2022/07/11 04:20:02;;;;;;;0.10;0.10;;;;;;;21.87;52.70;101949.97;5140164;27;20042;-39
2022/07/11 04:22:28;;;;;;;0.10;0.10;;;;;;;21.84;52.72;101944.13;5123842;27;20067;-39
2022/07/11 04:24:54;;;;;;;0.10;0.10;;;;;;;21.85;52.83;101946.66;5139108;27;20043;-37
2022/07/11 04:27:20;;;;;;;0.10;0.10;;;;;;;21.84;52.70;101949.69;5139659;27;20053;-39
2022/07/11 04:29:48;;;;;;;0.10;0.10;;;;;;;21.84;52.76;101952.44;5142781;27;20046;-39
2022/07/11 04:32:14;;;;;;;0.10;0.10;;;;;;;21.86;52.81;101956.63;5141484;27;20126;-38
2022/07/11 04:34:39;;;;;;;0.10;0.10;;;;;;;21.86;52.70;101967.72;5140135;27;20043;-39
2022/07/11 04:37:05;;;;;;;0.10;0.10;;;;;;;21.85;52.49;101952.19;5142270;27;20060;-37
2022/07/11 04:39:32;;;;;;;0.10;0.10;;;;;;;21.85;52.78;101952.19;5138766;27;20039;-37
2022/07/11 04:41:58;;;;;;;0.10;0.10;;;;;;;21.87;52.76;101954.69;5139750;27;20078;-39
2022/07/11 04:44:24;;;;;;;0.10;0.10;;;;;;;21.86;52.73;101953.84;5125133;27;20082;-38
2022/07/11 04:46:50;;;;;;;0.10;0.10;;;;;;;21.84;52.78;101953.28;5137749;27;20047;-38
2022/07/11 04:49:15;;;;;;;0.10;0.10;;;;;;;21.83;52.80;101953.56;5140889;27;20164;-37
2022/07/11 04:51:41;;;;;;;0.10;0.10;;;;;;;21.82;52.79;101944.41;5140126;27;20039;-39
2022/07/11 04:54:07;;;;;;;0.10;0.10;;;;;;;21.84;52.54;101950.50;5139331;27;20039;-39
2022/07/11 04:56:33;;;;;;;0.20;0.20;;;;;;;21.84;52.65;101953.28;5143922;27;20479;-39
2022/07/11 04:58:58;;;;;;;0.10;0.10;;;;;;;21.83;52.84;101959.13;5140977;27;20051;-38
2022/07/11 05:01:24;;;;;;;0.10;0.10;;;;;;;21.85;52.81;101959.66;5145592;27;20096;-37
2022/07/11 05:03:50;;;;;;;0.10;0.10;;;;;;;21.84;52.79;101955.22;5141670;27;20057;-38
2022/07/11 05:06:16;;;;;;;0.10;0.10;;;;;;;21.85;52.79;101967.97;5138424;27;20170;-37
2022/07/11 05:08:42;;;;;;;0.10;0.10;;;;;;;21.84;52.94;101969.09;5142297;27;20503;-38
2022/07/11 05:11:07;;;;;;;0.10;0.10;;;;;;;21.85;52.66;101968.84;5144027;27;20039;-37
2022/07/11 05:13:33;;;;;;;0.10;0.10;;;;;;;21.83;52.66;101964.66;5144481;27;20047;-39
2022/07/11 05:15:59;;;;;;;0.10;0.10;;;;;;;21.87;52.61;101965.78;5137801;27;20095;-39
2022/07/11 05:18:24;;;;;;;0.10;0.10;;;;;;;21.86;52.57;101964.94;5140819;27;20054;-37
2022/07/11 05:20:50;;;;;;;0.10;0.10;;;;;;;21.87;52.61;101974.94;5141130;27;20047;-37
2022/07/11 05:23:16;;;;;;;0.10;0.10;;;;;;;21.87;52.58;101966.59;5148444;27;20126;-35
2022/07/11 05:25:41;;;;;;;0.10;0.10;;;;;;;21.87;53.12;101968.56;5140126;27;20485;-37
2022/07/11 05:28:07;;;;;;;0.10;0.10;;;;;;;21.84;52.87;101972.69;5140421;27;20053;-38
2022/07/11 05:30:33;;;;;;;0.10;0.10;;;;;;;21.84;52.69;101981.00;5124440;27;20072;-37
2022/07/11 05:32:59;;;;;;;0.10;0.10;;;;;;;21.85;52.68;101979.94;5143202;27;20168;-37
2022/07/11 05:35:25;;;;;;;0.10;0.10;;;;;;;21.85;52.60;101984.63;5125925;27;20065;-37
2022/07/11 05:37:50;;;;;;;0.10;0.10;;;;;;;21.88;52.65;101990.44;5123657;27;20039;-37
2022/07/11 05:40:16;;;;;;;0.10;0.10;;;;;;;21.86;52.76;101987.13;5122054;27;20039;-38
2022/07/11 05:42:42;;;;;;;0.10;0.10;;;;;;;21.83;52.76;101995.16;5147152;27;20115;-37
2022/07/11 05:45:08;;;;;;;0.10;0.10;;;;;;;21.86;52.66;101995.47;5142873;27;20051;-37
2022/07/11 05:47:34;;;;;;;0.10;0.10;;;;;;;21.85;52.71;101991.03;5142820;27;20074;-39
2022/07/11 05:50:00;;;;;;;0.10;0.10;;;;;;;21.88;52.64;101997.94;5145383;27;20396;-37
2022/07/11 05:52:25;;;;;;;0.10;0.10;;;;;;;21.85;52.75;101991.03;5141302;27;20043;-38
2022/07/11 05:54:51;;;;;;;0.10;0.10;;;;;;;21.83;52.63;101993.22;5123156;27;20038;-38
2022/07/11 05:57:17;;;;;;;0.10;0.10;;;;;;;21.83;52.72;101984.06;5141353;27;20400;-38
2022/07/11 05:59:42;;;;;;;0.10;0.10;;;;;;;21.86;52.48;101989.91;5146855;27;20071;-37
2022/07/11 06:02:08;;;;;;;0.10;0.10;;;;;;;21.83;52.60;101995.16;5146200;27;20049;-38
2022/07/11 06:04:34;;;;;;;0.10;0.10;;;;;;;21.86;52.66;101992.69;5140159;27;20043;-38
2022/07/11 06:07:00;;;;;;;0.10;0.10;;;;;;;21.86;52.64;101998.22;5123009;27;20147;-39
2022/07/11 06:09:26;;;;;;;0.10;0.10;;;;;;;21.85;52.72;102001.25;5143512;27;20050;-38
2022/07/11 06:11:51;;;;;;;0.10;0.10;;;;;;;21.87;52.88;101999.06;5144398;27;20039;-39
2022/07/11 06:14:17;;;;;;;0.10;0.10;;;;;;;21.85;52.60;102002.13;5138218;27;20043;-38
2022/07/11 06:16:43;;;;;;;0.10;0.10;;;;;;;21.85;52.61;101999.34;5140744;27;20524;-38
2022/07/11 06:19:09;;;;;;;0.10;0.10;;;;;;;21.85;52.74;102001.25;5143140;27;20046;-37
2022/07/11 06:21:35;;;;;;;0.10;0.10;;;;;;;21.84;52.78;102011.53;5143456;27;20042;-40
2022/07/11 06:24:00;;;;;;;0.13;0.13;;;;;;;21.86;52.67;102006.53;5144290;27;20370;-37
2022/07/11 06:26:26;;;;;;;0.10;0.10;;;;;;;21.86;52.65;102012.09;5143404;27;20051;-40
2022/07/11 06:28:52;;;;;;;0.10;0.10;;;;;;;21.87;52.34;102015.69;5144551;27;20083;-36
2022/07/11 06:31:18;;;;;;;0.20;0.20;;;;;;;21.85;52.68;102006.81;5143623;27;20083;-39
2022/07/11 06:33:43;;;;;;;0.10;0.10;;;;;;;21.84;52.73;102005.97;5144190;27;20039;-37
2022/07/11 06:36:10;;;;;;;0.10;0.10;;;;;;;21.85;52.54;102002.13;5144841;27;20042;-37
2022/07/11 06:38:36;;;;;;;0.10;0.10;;;;;;;21.85;52.63;102006.81;5141051;27;20035;-38
2022/07/11 06:41:01;;;;;;;0.10;0.10;;;;;;;21.83;52.76;102004.31;5143212;27;20038;-39
2022/07/11 06:43:29;;;;;;;0.10;0.10;;;;;;;21.87;52.73;102012.94;5140413;27;20047;-38
2022/07/11 06:45:54;;;;;;;0.10;0.10;;;;;;;21.86;52.55;102009.31;5124540;27;20176;-37
2022/07/11 06:48:21;;;;;;;0.20;0.20;;;;;;;21.85;52.59;102002.13;5141724;27;20050;-37
2022/07/11 06:50:47;;;;;;;0.10;0.10;;;;;;;21.86;52.61;102012.09;5143701;27;20050;-38
2022/07/11 06:53:12;;;;;;;0.10;0.10;;;;;;;21.87;52.46;102013.75;5123255;27;20039;-38
2022/07/11 06:55:38;;;;;;;0.10;0.10;;;;;;;21.83;52.68;102004.31;5142600;27;20050;-38
2022/07/11 06:58:05;;;;;;;0.10;0.10;;;;;;;21.83;52.65;102009.03;5124251;27;20043;-39
2022/07/11 07:00:49;;;;;;;0.10;0.10;;;;;;;21.82;52.71;102007.38;5129769;27;20492;-38
2022/07/11 07:03:15;;;;;;;0.10;0.10;;;;;;;21.82;52.76;102008.19;5121758;27;20094;-37
2022/07/11 07:05:46;;;;;;;0.10;0.10;;;;;;;21.84;52.74;102008.75;5144192;27;20050;-39
2022/07/11 07:08:11;;;;;;;0.10;0.10;;;;;;;21.83;52.71;102012.63;5141815;27;20051;-40
2022/07/11 07:10:37;;;;;;;0.10;0.10;;;;;;;21.85;52.65;102007.66;5143293;27;20167;-39
2022/07/11 07:13:03;;;;;;;0.10;0.10;;;;;;;21.87;52.58;102012.94;5143388;27;20039;-38
2022/07/11 07:15:28;;;;;;;0.10;0.10;;;;;;;21.83;52.68;102020.13;5141771;27;20053;-37
2022/07/11 07:17:54;;;;;;;0.10;0.10;;;;;;;21.82;52.75;102022.06;5137275;27;20058;-37
2022/07/11 07:20:27;;;;;;;0.10;0.10;;;;;;;21.87;52.64;102022.06;5142573;27;20051;-37
2022/07/11 07:22:53;;;;;;;0.10;0.10;;;;;;;21.84;52.60;102019.00;5147349;27;20049;-37
2022/07/11 07:25:19;;;;;;;0.10;0.10;;;;;;;21.83;52.53;102020.94;5142153;27;20089;-37
2022/07/11 07:27:44;;;;;;;0.10;0.10;;;;;;;21.87;52.92;102021.25;5140529;27;20465;-39
2022/07/11 07:30:10;;;;;;;0.10;0.10;;;;;;;21.82;52.72;102019.28;5141691;27;20392;-37
2022/07/11 07:32:36;;;;;;;0.10;0.10;;;;;;;21.85;52.71;102021.53;5141866;27;20046;-39
2022/07/11 07:35:01;;;;;;;0.10;0.10;;;;;;;21.84;52.69;102014.28;5140369;27;20043;-38
2022/07/11 07:37:27;;;;;;;0.10;0.10;;;;;;;21.84;52.51;102017.06;5143124;27;20047;-39
2022/07/11 07:39:52;;;;;;;0.10;0.10;;;;;;;21.84;52.74;102013.47;5142884;27;20043;-39
2022/07/11 07:42:18;;;;;;;0.10;0.10;;;;;;;21.85;52.67;102013.22;5148335;27;20125;-39
2022/07/11 07:44:44;;;;;;;0.10;0.10;;;;;;;21.85;52.66;102015.97;5145527;27;20133;-37
2022/07/11 07:47:09;;;;;;;0.10;0.10;;;;;;;21.87;52.74;102019.31;5144330;27;20047;-38
2022/07/11 07:49:35;;;;;;;0.10;0.10;;;;;;;21.83;52.59;102012.63;5139595;27;20053;-37
2022/07/11 07:52:01;;;;;;;0.10;0.10;;;;;;;21.85;52.70;102017.91;5142873;27;20043;-37
2022/07/11 07:54:27;;;;;;;0.10;0.10;;;;;;;21.84;52.67;102007.91;5144371;27;20430;-39
2022/07/11 07:56:52;;;;;;;0.10;0.10;;;;;;;21.85;52.63;102009.56;5145772;27;20475;-37
2022/07/11 07:59:18;;;;;;;0.10;0.10;;;;;;;21.84;52.59;102007.91;5142271;27;20416;-37
2022/07/11 08:01:45;;;;;;;0.10;0.10;;;;;;;21.83;52.63;102006.25;5142561;27;20061;-37
2022/07/11 08:04:11;;;;;;;0.10;0.10;;;;;;;21.84;52.68;102005.97;5143163;27;20074;-39
2022/07/11 08:06:37;;;;;;;0.10;0.10;;;;;;;21.82;52.77;102012.91;5144016;27;20133;-39
2022/07/11 08:09:04;;;;;;;0.10;0.10;;;;;;;21.82;52.67;102012.91;5121166;27;20070;-39
2022/07/11 08:11:30;;;;;;;0.10;0.10;;;;;;;21.83;52.77;102007.09;5125572;27;20066;-37
2022/07/11 08:13:58;;;;;;;0.10;0.10;;;;;;;21.84;52.67;102007.91;5140502;27;20050;-37
2022/07/11 08:16:24;;;;;;;0.10;0.10;;;;;;;21.83;52.67;102011.81;5120442;27;20125;-39
2022/07/11 08:18:50;;;;;;;0.10;0.10;;;;;;;21.84;52.66;102014.28;5122413;27;20055;-35
2022/07/11 08:21:15;;;;;;;0.10;0.10;;;;;;;21.83;52.74;102003.47;5123432;27;20047;-39
2022/07/11 08:23:41;;;;;;;0.10;0.10;;;;;;;21.84;52.75;102003.19;5138463;27;20035;-39
2022/07/11 08:26:07;;;;;;;0.10;0.10;;;;;;;21.83;52.76;102003.47;5136420;27;20038;-39
2022/07/11 08:28:32;;;;;;;0.10;0.10;;;;;;;21.84;52.60;102003.19;5136263;27;20039;-37
2022/07/11 08:30:58;;;;;;;0.10;0.10;;;;;;;21.83;52.74;102000.72;5143621;27;20412;-39
2022/07/11 08:33:24;;;;;;;0.10;0.10;;;;;;;21.82;52.71;102007.38;5139085;27;20047;-38
2022/07/11 08:35:49;;;;;;;0.10;0.10;;;;;;;21.83;52.68;102011.81;5139309;27;20047;-39
2022/07/11 08:38:15;;;;;;;0.10;0.10;;;;;;;21.84;52.83;102013.47;5142380;27;20395;-38
2022/07/11 08:40:41;;;;;;;0.10;0.10;;;;;;;21.84;52.69;102025.38;5139319;27;20055;-37
2022/07/11 08:43:15;;;;;;;0.10;0.10;;;;;;;21.83;52.59;102018.19;5139519;27;20035;-38
2022/07/11 08:45:41;;;;;;;0.10;0.10;;;;;;;21.84;52.76;102016.22;5122354;27;20129;-37
2022/07/11 08:48:10;;;;;;;0.10;0.10;;;;;;;21.84;52.64;102019.84;5128504;27;20500;-39
2022/07/11 08:50:36;;;;;;;0.10;0.10;;;;;;;21.85;52.63;102027.06;5144642;27;20130;-38
2022/07/11 08:53:03;;;;;;;0.10;0.10;;;;;;;21.84;52.58;102030.94;5125454;27;20047;-38
2022/07/11 08:55:35;;;;;;;0.10;0.10;;;;;;;21.84;52.67;102025.38;5125316;27;20500;-38
2022/07/11 08:58:02;;;;;;;0.10;0.10;;;;;;;21.84;52.74;102024.56;5144355;27;20082;-38
2022/07/11 09:00:27;;;;;;;0.10;0.10;;;;;;;21.81;52.63;102020.41;5128326;27;20084;-38
2022/07/11 09:02:53;;;;;;;0.10;0.10;;;;;;;21.85;52.52;102020.66;5144590;27;20042;-37
2022/07/11 09:05:19;;;;;;;0.10;0.10;;;;;;;21.83;52.73;102018.19;5125631;27;20415;-38
2022/07/11 09:07:46;;;;;;;0.10;0.10;;;;;;;21.84;52.60;102019.84;5139403;27;20059;-38
2022/07/11 09:10:13;;;;;;;0.10;0.10;;;;;;;21.82;52.76;102022.06;5145864;27;20484;-38
2022/07/11 09:15:42;;;;;;;0.10;0.10;;;;;;;21.84;52.67;102016.22;5174901;27;20120;-38
2022/07/11 09:18:30;;;;;;;0.10;0.10;;;;;;;21.83;52.67;102020.13;5131106;27;20050;-38
2022/07/11 09:26:42;;;;;;;0.10;0.10;;;;;;;21.83;52.68;102023.72;5141549;27;20076;-38
2022/07/11 09:29:17;;;;;;;0.10;0.10;;;;;;;21.85;52.60;102024.31;5160961;27;20074;-38
2022/07/11 09:31:44;;;;;;;0.10;0.10;;;;;;;21.85;52.53;102017.91;5139328;27;20416;-36
2022/07/11 09:34:13;;;;;;;0.10;0.10;;;;;;;21.83;52.71;102017.34;5157262;27;20137;-36
2022/07/11 09:36:55;;;;;;;0.10;0.10;;;;;;;21.81;52.38;102012.09;5153492;27;20298;-39
2022/07/11 09:39:22;;;;;;;0.10;0.10;;;;;;;21.83;52.73;102012.63;5154833;27;20053;-38
2022/07/11 09:41:50;;;;;;;0.10;0.10;;;;;;;21.82;52.65;102005.44;5120047;27;20093;-38
2022/07/11 09:44:19;;;;;;;0.10;0.10;;;;;;;21.84;52.66;102003.19;5133461;27;20191;-37
2022/07/11 09:46:47;;;;;;;0.10;0.10;;;;;;;21.82;52.82;102008.19;5115441;27;20127;-37
2022/07/11 09:49:13;;;;;;;0.10;0.10;;;;;;;21.85;52.66;102010.44;5115725;27;20039;-37
2022/07/11 09:51:39;;;;;;;0.10;0.10;;;;;;;21.84;52.57;102008.75;5139622;27;20074;-38
2022/07/11 09:54:06;;;;;;;0.10;0.10;;;;;;;21.82;52.65;102010.97;5098316;27;20044;-36
2022/07/11 09:56:39;;;;;;;0.10;0.10;;;;;;;21.82;52.78;102013.75;5139792;27;20484;-38
2022/07/11 09:59:23;;;;;;;0.10;0.10;;;;;;;21.83;52.71;102011.81;5122779;27;20047;-37
2022/07/11 10:01:48;;;;;;;0.10;0.10;;;;;;;21.84;52.67;102011.53;5138652;27;20078;-37
2022/07/11 10:04:14;;;;;;;0.10;0.10;;;;;;;21.84;52.68;102005.97;5138930;27;20056;-38
2022/07/11 10:06:44;;;;;;;0.10;0.10;;;;;;;21.84;52.60;102010.69;5130174;27;20043;-36
2022/07/11 10:09:09;;;;;;;0.10;0.10;;;;;;;21.83;52.57;102007.09;5132092;27;20058;-37
2022/07/11 10:11:35;;;;;;;0.10;0.10;;;;;;;21.82;52.57;102002.66;5134247;27;20050;-37
2022/07/11 10:14:03;;;;;;;0.10;0.10;;;;;;;21.84;52.63;102016.22;5134684;27;20058;-36
2022/07/11 10:16:54;;;;;;;0.10;0.10;;;;;;;21.82;52.58;102005.44;5132426;27;21219;-37
2022/07/11 10:19:43;;;;;;;0.10;0.10;;;;;;;21.82;52.68;102007.38;5118434;27;20071;-38
2022/07/11 10:22:31;;;;;;;0.10;0.10;;;;;;;21.83;52.63;102011.81;5102401;27;20417;-38
2022/07/11 10:25:02;;;;;;;0.10;0.10;;;;;;;21.82;52.66;102019.28;5131476;27;20086;-39
2022/07/11 10:27:55;;;;;;;0.10;0.10;;;;;;;21.82;52.68;102018.47;5121014;28;20043;-38
2022/07/11 10:30:46;;;;;;;0.10;0.10;;;;;;;21.80;52.65;102015.94;5104218;28;20481;-38
2022/07/11 10:33:13;;;;;;;0.10;0.10;;;;;;;21.82;52.69;102018.47;5103680;28;20073;-38
2022/07/11 10:35:41;;;;;;;0.10;0.10;;;;;;;21.81;52.65;102019.56;5101188;28;20059;-38
2022/07/11 10:38:07;;;;;;;0.10;0.10;;;;;;;21.81;52.60;102020.41;5120211;28;20477;-39
2022/07/11 10:40:51;;;;;;;0.10;0.10;;;;;;;21.81;52.86;102025.13;5118453;28;20050;-38
2022/07/11 10:43:36;;;;;;;0.10;0.10;;;;;;;21.81;52.85;102030.66;5083500;28;20546;-38
2022/07/11 10:46:06;;;;;;;0.10;0.10;;;;;;;21.83;52.61;102022.91;5086011;28;20075;-38
2022/07/11 10:48:35;;;;;;;0.10;0.10;;;;;;;21.82;52.67;102033.16;5117277;28;20047;-38
2022/07/11 10:51:10;;;;;;;0.10;0.10;;;;;;;21.81;52.70;102037.03;5122041;28;20078;-37
2022/07/11 10:53:45;;;;;;;0.10;0.10;;;;;;;21.82;52.79;102040.66;5119906;28;20081;-38
2022/07/11 10:56:50;;;;;;;0.10;0.10;;;;;;;21.80;52.63;102032.56;5122603;28;20446;-39
2022/07/11 10:59:22;;;;;;;0.10;0.10;;;;;;;21.83;52.77;102029.28;5109771;28;20044;-38
2022/07/11 11:04:45;;;;;;;0.10;0.10;;;;;;;21.86;52.67;102042.59;5159278;27;20468;-37
2022/07/11 11:07:40;;;;;;;0.10;0.10;;;;;;;21.87;52.62;102040.66;5146239;27;20058;-38
2022/07/11 11:10:34;;;;;;;0.10;0.10;;;;;;;21.84;52.67;102043.97;5118522;27;20166;-38
2022/07/11 11:15:49;;;;;;;0.10;0.10;;;;;;;21.82;52.76;102035.09;5167011;27;20120;-38
2022/07/11 11:23:46;;;;;;;0.10;0.10;;;;;;;21.82;52.75;102044.25;5177162;27;20144;-38
2022/07/11 11:26:18;;;;;;;0.10;0.10;;;;;;;21.81;52.69;102038.97;5132290;27;20041;-38
2022/07/11 11:29:02;;;;;;;0.10;0.10;;;;;;;21.81;52.74;102034.28;5132493;27;20039;-38
2022/07/11 11:31:29;;;;;;;0.10;0.10;;;;;;;21.80;52.79;102035.34;5135542;27;20073;-38
2022/07/11 11:33:57;;;;;;;0.10;0.10;;;;;;;21.84;52.61;102033.69;5153099;27;20039;-37
2022/07/11 11:36:24;;;;;;;0.10;0.10;;;;;;;21.85;52.68;102031.75;5152171;27;20127;-38
2022/07/11 11:38:50;;;;;;;0.10;0.10;;;;;;;21.81;52.67;102033.44;5153120;27;20073;-39
2022/07/11 11:41:32;;;;;;;0.10;0.10;;;;;;;21.86;52.57;102031.50;5155085;27;20039;-38
2022/07/11 11:44:01;;;;;;;0.10;0.10;;;;;;;21.83;52.60;102036.75;5153929;27;20078;-39
2022/07/11 11:46:29;;;;;;;0.10;0.10;;;;;;;21.84;52.57;102039.25;5131925;27;20050;-38